createdAt,value
2023-01-13T00:01:35.162Z,64.14
2023-01-13T00:04:20.144Z,65.68
2023-01-13T00:07:05.043Z,63.41
2023-01-13T00:09:49.960Z,61.87
2023-01-13T00:12:34.942Z,61.28
2023-01-13T00:15:19.798Z,61.59
2023-01-13T00:18:04.675Z,61.64
2023-01-13T00:20:49.645Z,60.06
2023-01-13T00:23:34.494Z,59.43
2023-01-13T00:26:19.544Z,59.57
2023-01-13T00:29:04.577Z,59.29
2023-01-13T00:31:49.435Z,59.48
2023-01-13T00:34:34.365Z,60.24
2023-01-13T00:37:19.093Z,59.60
2023-01-13T00:40:03.905Z,60.59
2023-01-13T00:42:48.691Z,60.22
2023-01-13T00:45:33.598Z,60.56
2023-01-13T00:48:18.584Z,60.16
2023-01-13T00:51:03.402Z,61.11
2023-01-13T00:53:48.397Z,59.75
2023-01-13T00:56:40.291Z,61.72
2023-01-13T00:59:25.766Z,62.52
2023-01-13T01:02:10.979Z,62.66
2023-01-13T01:04:56.251Z,63.00
2023-01-13T01:07:41.347Z,64.06
2023-01-13T01:10:26.170Z,63.67
2023-01-13T01:13:10.958Z,64.11
2023-01-13T01:15:55.812Z,63.66
2023-01-13T01:18:40.535Z,63.63
2023-01-13T01:21:25.334Z,65.63
2023-01-13T01:24:10.176Z,65.39
2023-01-13T01:26:55.251Z,64.48
2023-01-13T01:29:40.125Z,64.39
2023-01-13T01:32:25.025Z,63.15
2023-01-13T01:35:09.989Z,63.12
2023-01-13T01:37:54.829Z,63.28
2023-01-13T01:40:39.833Z,61.61
2023-01-13T01:43:24.660Z,61.18
2023-01-13T01:46:09.633Z,60.08
2023-01-13T01:48:54.450Z,60.17
2023-01-13T01:51:39.426Z,61.54
2023-01-13T01:54:24.161Z,62.32
2023-01-13T01:57:09.053Z,61.91
2023-01-13T01:59:54.073Z,61.31
2023-01-13T02:02:39.059Z,60.77
2023-01-13T02:05:23.832Z,60.95
2023-01-13T02:08:08.748Z,61.70
2023-01-13T02:10:53.601Z,62.93
2023-01-13T02:13:38.433Z,62.79
2023-01-13T02:16:23.383Z,61.79
2023-01-13T02:19:08.022Z,62.42
2023-01-13T02:21:52.894Z,62.71
2023-01-13T02:24:37.724Z,64.25
2023-01-13T02:27:22.492Z,64.70
2023-01-13T02:30:07.985Z,65.83
2023-01-13T02:32:52.939Z,65.42
2023-01-13T02:35:37.916Z,66.61
2023-01-13T02:38:22.834Z,65.68
2023-01-13T02:41:07.849Z,65.43
2023-01-13T02:43:52.582Z,65.40
2023-01-13T02:46:37.452Z,65.07
2023-01-13T02:49:22.236Z,64.28
2023-01-13T02:52:07.052Z,63.52
2023-01-13T02:54:52.037Z,63.76
2023-01-13T02:57:36.918Z,63.60
2023-01-13T03:00:21.816Z,62.87
2023-01-13T03:03:06.656Z,63.55
2023-01-13T03:05:51.474Z,62.25
2023-01-13T03:08:36.283Z,63.06
2023-01-13T03:11:21.153Z,64.70
2023-01-13T03:14:06.025Z,63.96
2023-01-13T03:16:50.926Z,63.99
2023-01-13T03:19:36.210Z,64.80
2023-01-13T03:22:21.026Z,65.13
2023-01-13T03:25:06.058Z,65.77
2023-01-13T03:27:50.816Z,64.92
2023-01-13T03:30:35.755Z,64.08
2023-01-13T03:33:20.562Z,65.40
2023-01-13T03:36:05.714Z,64.51
2023-01-13T03:38:50.473Z,67.03
2023-01-13T03:41:35.463Z,66.45
2023-01-13T03:44:20.465Z,66.29
2023-01-13T03:47:05.322Z,68.29
2023-01-13T03:49:50.170Z,65.93
2023-01-13T03:52:35.104Z,67.55
2023-01-13T03:55:20.112Z,68.50
2023-01-13T03:58:04.980Z,68.80
2023-01-13T04:00:49.868Z,67.66
2023-01-13T04:03:34.739Z,67.62
2023-01-13T04:06:19.561Z,68.39
2023-01-13T04:09:05.040Z,68.75
2023-01-13T04:11:49.799Z,69.81
2023-01-13T04:14:34.609Z,68.93
2023-01-13T04:17:19.392Z,69.69
2023-01-13T04:20:04.405Z,70.02
2023-01-13T04:22:49.223Z,71.22
2023-01-13T04:25:34.065Z,70.10
2023-01-13T04:28:18.885Z,70.43
2023-01-13T04:31:03.875Z,70.89
2023-01-13T04:33:49.160Z,71.85
2023-01-13T04:36:33.973Z,71.99
2023-01-13T04:39:19.028Z,73.82
2023-01-13T04:42:03.980Z,76.55
2023-01-13T04:44:48.879Z,76.59
2023-01-13T04:47:33.682Z,75.23
2023-01-13T04:50:18.653Z,76.61
2023-01-13T04:53:03.474Z,78.16
2023-01-13T04:55:48.388Z,78.68
2023-01-13T04:58:33.196Z,78.90
2023-01-13T05:01:18.099Z,78.08
2023-01-13T05:04:03.472Z,79.53
2023-01-13T05:06:48.199Z,78.54
2023-01-13T05:09:33.221Z,78.79
2023-01-13T05:12:18.013Z,78.84
2023-01-13T05:15:02.895Z,78.08
2023-01-13T05:17:47.745Z,78.61
2023-01-13T05:20:32.629Z,79.41
2023-01-13T05:23:17.473Z,77.86
2023-01-13T05:26:02.438Z,77.63
2023-01-13T05:28:47.337Z,76.81
2023-01-13T05:31:32.229Z,77.24
2023-01-13T05:34:17.140Z,77.56
2023-01-13T05:37:02.025Z,78.10
2023-01-13T05:39:47.055Z,78.43
2023-01-13T05:42:31.870Z,79.36
2023-01-13T05:45:17.296Z,78.97
2023-01-13T05:48:02.150Z,78.33
2023-01-13T05:50:46.956Z,78.70
2023-01-13T05:53:32.045Z,77.98
2023-01-13T05:56:16.918Z,77.63
2023-01-13T05:59:01.837Z,78.23
2023-01-13T06:01:46.673Z,77.60
2023-01-13T06:04:32.956Z,77.77
2023-01-13T06:07:17.823Z,76.74
2023-01-13T06:10:02.691Z,79.08
2023-01-13T06:12:47.736Z,78.83
2023-01-13T06:15:32.498Z,78.01
2023-01-13T06:18:17.396Z,78.28
2023-01-13T06:21:02.283Z,77.56
2023-01-13T06:23:47.205Z,79.05
2023-01-13T06:26:31.990Z,78.37
2023-01-13T06:29:16.888Z,77.98
2023-01-13T06:32:01.775Z,78.45
2023-01-13T06:34:46.506Z,79.58
2023-01-13T06:37:31.389Z,78.94
2023-01-13T06:40:16.224Z,78.26
2023-01-13T06:43:01.191Z,78.14
2023-01-13T06:45:45.915Z,78.79
2023-01-13T06:48:30.788Z,78.01
2023-01-13T06:51:15.679Z,78.80
2023-01-13T06:54:00.681Z,79.99
2023-01-13T06:56:45.518Z,79.09
2023-01-13T06:59:30.393Z,79.78
2023-01-13T07:02:15.379Z,80.39
2023-01-13T07:05:00.131Z,78.85
2023-01-13T07:07:45.125Z,80.34
2023-01-13T07:10:30.014Z,79.72
2023-01-13T07:13:14.810Z,79.05
2023-01-13T07:15:59.654Z,78.45
2023-01-13T07:18:44.551Z,80.85
2023-01-13T07:21:29.538Z,79.04
2023-01-13T07:24:14.373Z,79.64
2023-01-13T07:26:59.250Z,81.07
2023-01-13T07:29:44.220Z,81.12
2023-01-13T07:32:29.216Z,80.56
2023-01-13T07:35:14.008Z,80.23
2023-01-13T07:37:58.864Z,79.36
2023-01-13T07:40:43.647Z,78.85
2023-01-13T07:43:28.510Z,80.49
2023-01-13T07:46:13.379Z,81.10
2023-01-13T07:48:58.195Z,81.41
2023-01-13T07:51:43.136Z,79.13
2023-01-13T07:54:39.682Z,79.98
2023-01-13T07:57:25.979Z,80.29
2023-01-13T08:00:12.871Z,81.18
2023-01-13T08:02:58.532Z,79.31
2023-01-13T08:05:43.579Z,77.89
2023-01-13T08:08:28.515Z,77.40
2023-01-13T08:11:13.283Z,77.47
2023-01-13T08:13:58.077Z,77.68
2023-01-13T08:16:43.046Z,77.73
2023-01-13T08:19:27.680Z,78.08
2023-01-13T08:22:12.636Z,78.29
2023-01-13T08:24:57.629Z,77.42
2023-01-13T08:27:42.462Z,77.09
2023-01-13T08:30:27.300Z,78.91
2023-01-13T08:33:12.210Z,77.31
2023-01-13T08:35:56.974Z,77.67
2023-01-13T08:38:41.950Z,78.51
2023-01-13T08:41:26.928Z,79.21
2023-01-13T08:44:12.061Z,78.36
2023-01-13T08:46:56.996Z,79.95
2023-01-13T08:49:41.992Z,80.77
2023-01-13T08:52:26.945Z,80.17
2023-01-13T08:55:11.776Z,79.28
2023-01-13T08:58:14.035Z,79.12
2023-01-13T09:00:59.842Z,78.32
2023-01-13T09:03:45.090Z,79.00
2023-01-13T09:06:30.009Z,77.81
2023-01-13T09:09:14.801Z,79.32
2023-01-13T09:11:59.788Z,77.68
2023-01-13T09:14:44.524Z,78.25
2023-01-13T09:17:29.492Z,78.08
2023-01-13T09:20:14.254Z,80.13
2023-01-13T09:22:59.122Z,78.61
2023-01-13T09:25:43.992Z,78.47
2023-01-13T09:28:28.782Z,76.11
2023-01-13T09:31:13.736Z,77.68
2023-01-13T09:33:58.667Z,76.92
2023-01-13T09:36:43.468Z,75.70
2023-01-13T09:39:28.294Z,74.60
2023-01-13T09:42:13.160Z,76.08
2023-01-13T09:44:58.117Z,76.15
2023-01-13T09:47:43.013Z,77.28
2023-01-13T09:50:27.898Z,77.52
2023-01-13T09:53:12.826Z,77.68
2023-01-13T09:55:57.728Z,78.33
2023-01-13T09:58:42.448Z,80.75
2023-01-13T10:01:27.410Z,79.66
2023-01-13T10:04:12.695Z,78.57
2023-01-13T10:06:57.562Z,77.81
2023-01-13T10:09:42.412Z,79.09
2023-01-13T10:12:27.348Z,77.49
2023-01-13T10:15:12.246Z,75.97
2023-01-13T10:17:57.086Z,76.97
2023-01-13T10:20:42.115Z,76.53
2023-01-13T10:23:26.968Z,75.02
2023-01-13T10:26:12.032Z,77.44
2023-01-13T10:28:56.947Z,77.15
2023-01-13T10:31:41.821Z,76.00
2023-01-13T10:34:26.689Z,74.65
2023-01-13T10:37:11.520Z,75.09
2023-01-13T10:39:56.379Z,74.70
2023-01-13T10:42:41.138Z,75.39
2023-01-13T10:45:26.149Z,74.16
2023-01-13T10:48:11.003Z,76.48
2023-01-13T10:50:55.907Z,75.11
2023-01-13T10:53:40.671Z,73.75
2023-01-13T10:56:25.507Z,73.17
2023-01-13T10:59:10.325Z,72.90
2023-01-13T11:01:55.303Z,72.32
2023-01-13T11:04:40.341Z,71.66
2023-01-13T11:07:28.235Z,71.47
2023-01-13T11:10:13.365Z,71.50
2023-01-13T11:12:58.245Z,72.01
2023-01-13T11:15:43.278Z,72.11
2023-01-13T11:18:28.235Z,71.89
2023-01-13T11:21:13.043Z,70.82
2023-01-13T11:23:57.948Z,72.36
2023-01-13T11:26:42.755Z,72.31
2023-01-13T11:29:27.780Z,72.08
2023-01-13T11:32:12.630Z,72.27
2023-01-13T11:34:57.566Z,71.76
2023-01-13T11:37:42.506Z,71.86
2023-01-13T11:40:27.389Z,72.63
2023-01-13T11:43:12.353Z,72.12
2023-01-13T11:45:57.131Z,71.88
2023-01-13T11:48:42.029Z,71.98
2023-01-13T11:51:26.917Z,74.27
2023-01-13T11:54:11.960Z,72.02
2023-01-13T11:56:56.773Z,72.94
2023-01-13T11:59:41.619Z,72.47
2023-01-13T12:02:26.572Z,71.04
2023-01-13T12:05:11.946Z,69.87
2023-01-13T12:07:56.902Z,70.99
2023-01-13T12:10:42.615Z,71.42
2023-01-13T12:13:27.462Z,73.41
2023-01-13T12:16:12.461Z,72.97
2023-01-13T12:18:57.321Z,73.37
2023-01-13T12:21:42.231Z,71.85
2023-01-13T12:24:27.192Z,71.54
2023-01-13T12:27:12.066Z,71.05
2023-01-13T12:29:56.920Z,70.13
2023-01-13T12:32:41.783Z,68.70
2023-01-13T12:35:26.692Z,67.24
2023-01-13T12:38:11.539Z,68.59
2023-01-13T12:40:56.335Z,66.27
2023-01-13T12:43:41.314Z,65.24
2023-01-13T12:46:26.167Z,64.62
2023-01-13T12:49:11.058Z,64.58
2023-01-13T12:51:55.965Z,63.50
2023-01-13T12:54:40.919Z,62.58
2023-01-13T12:57:26.315Z,60.47
2023-01-13T13:00:11.170Z,62.53
2023-01-13T13:02:56.093Z,62.66
2023-01-13T13:05:40.984Z,63.03
2023-01-13T13:08:25.960Z,62.81
2023-01-13T13:11:10.745Z,62.91
2023-01-13T13:13:55.654Z,63.08
2023-01-13T13:16:40.726Z,66.53
2023-01-13T13:19:25.493Z,66.21
2023-01-13T13:22:10.472Z,64.86
2023-01-13T13:24:55.307Z,63.15
2023-01-13T13:27:40.309Z,63.10
2023-01-13T13:30:25.032Z,61.10
2023-01-13T13:33:09.975Z,61.24
2023-01-13T13:35:54.816Z,60.10
2023-01-13T13:38:39.735Z,59.75
2023-01-13T13:41:24.541Z,60.42
2023-01-13T13:44:09.188Z,60.60
2023-01-13T13:46:54.055Z,59.39
2023-01-13T13:49:38.961Z,59.07
2023-01-13T13:52:23.868Z,59.33
2023-01-13T13:55:08.758Z,62.77
2023-01-13T13:57:53.773Z,60.55
2023-01-13T14:00:38.462Z,62.92
2023-01-13T14:03:23.379Z,62.56
2023-01-13T14:06:08.324Z,62.29
2023-01-13T14:08:53.307Z,61.68
2023-01-13T14:11:38.244Z,64.12
2023-01-13T14:14:23.232Z,65.24
2023-01-13T14:17:08.146Z,64.39
2023-01-13T14:19:53.063Z,64.24
2023-01-13T14:22:37.880Z,65.59
2023-01-13T14:25:22.631Z,63.79
2023-01-13T14:28:07.547Z,62.47
2023-01-13T14:30:52.447Z,60.33
2023-01-13T14:33:38.652Z,59.45
2023-01-13T14:36:24.115Z,58.28
2023-01-13T14:39:08.925Z,56.55
2023-01-13T14:41:53.889Z,58.22
2023-01-13T14:44:38.760Z,56.60
2023-01-13T14:47:23.703Z,57.03
2023-01-13T14:50:08.864Z,55.73
2023-01-13T14:52:53.796Z,55.58
2023-01-13T14:55:38.733Z,55.21
2023-01-13T14:58:23.652Z,55.10
2023-01-13T15:01:08.722Z,55.79
2023-01-13T15:03:53.480Z,57.22
2023-01-13T15:06:38.372Z,60.40
2023-01-13T15:09:23.100Z,64.16
2023-01-13T15:12:08.008Z,64.86
2023-01-13T15:14:52.839Z,63.42
2023-01-13T15:17:38.752Z,62.48
2023-01-13T15:20:23.737Z,61.71
2023-01-13T15:23:08.584Z,63.84
2023-01-13T15:25:53.462Z,65.08
2023-01-13T15:28:38.160Z,69.00
2023-01-13T15:31:23.216Z,68.46
2023-01-13T15:34:08.562Z,69.12
2023-01-13T15:36:53.491Z,69.02
2023-01-13T15:39:38.338Z,68.45
2023-01-13T15:42:23.344Z,68.71
2023-01-13T15:45:08.169Z,68.40
2023-01-13T15:47:52.881Z,70.30
2023-01-13T15:50:37.899Z,70.00
2023-01-13T15:53:23.384Z,69.89
2023-01-13T15:56:08.456Z,68.75
2023-01-13T15:58:53.173Z,66.92
2023-01-13T16:01:38.072Z,64.49
2023-01-13T16:04:22.989Z,63.99
2023-01-13T16:07:07.851Z,65.87
2023-01-13T16:09:52.724Z,65.62
2023-01-13T16:12:37.660Z,65.20
2023-01-13T16:15:22.608Z,64.01
2023-01-13T16:18:07.626Z,64.77
2023-01-13T16:20:52.542Z,64.91
2023-01-13T16:23:37.312Z,65.14
2023-01-13T16:26:22.195Z,64.79
2023-01-13T16:29:06.981Z,63.20
2023-01-13T16:31:51.901Z,64.27
2023-01-13T16:34:36.807Z,64.47
2023-01-13T16:37:21.738Z,64.01
2023-01-13T16:40:06.762Z,63.99
2023-01-13T16:42:51.555Z,63.95
2023-01-13T16:45:36.498Z,63.37
2023-01-13T16:48:21.303Z,63.49
2023-01-13T16:51:06.138Z,65.50
2023-01-13T16:53:50.936Z,65.87
2023-01-13T16:56:35.894Z,64.45
2023-01-13T16:59:20.965Z,65.22
2023-01-13T17:02:05.750Z,65.43
2023-01-13T17:04:50.775Z,64.89
2023-01-13T17:07:35.591Z,64.54
2023-01-13T17:10:20.481Z,64.25
2023-01-13T17:13:15.660Z,65.25
2023-01-13T17:16:01.811Z,65.53
2023-01-13T17:18:48.153Z,65.32
2023-01-13T17:21:33.032Z,64.79
2023-01-13T17:24:17.975Z,64.70
2023-01-13T17:27:02.995Z,64.69
2023-01-13T17:29:47.765Z,63.55
2023-01-13T17:32:32.567Z,64.50
2023-01-13T17:35:17.634Z,65.00
2023-01-13T17:38:02.569Z,63.77
2023-01-13T17:40:47.940Z,64.28
2023-01-13T17:43:32.779Z,63.16
2023-01-13T17:46:17.738Z,63.76
2023-01-13T17:49:02.575Z,63.27
2023-01-13T17:51:47.470Z,62.60
2023-01-13T17:54:32.417Z,61.92
2023-01-13T17:57:17.330Z,58.95
2023-01-13T18:00:02.426Z,58.05
2023-01-13T18:02:47.363Z,57.70
2023-01-13T18:05:33.195Z,56.95
2023-01-13T18:08:17.987Z,55.58
2023-01-13T18:11:02.957Z,55.78
2023-01-13T18:13:47.800Z,56.82
2023-01-13T18:16:32.657Z,57.17
2023-01-13T18:19:17.645Z,56.32
2023-01-13T18:22:02.351Z,54.81
2023-01-13T18:24:47.229Z,55.35
2023-01-13T18:27:31.968Z,56.30
2023-01-13T18:30:16.958Z,56.94
2023-01-13T18:33:01.771Z,57.04
2023-01-13T18:35:46.827Z,58.11
2023-01-13T18:38:31.704Z,59.11
2023-01-13T18:41:16.687Z,58.00
2023-01-13T18:44:01.585Z,56.77
2023-01-13T18:46:46.421Z,55.97
2023-01-13T18:49:31.338Z,54.72
2023-01-13T18:52:16.139Z,54.18
2023-01-13T18:55:01.153Z,57.69
2023-01-13T18:57:46.024Z,61.66
2023-01-13T19:00:31.064Z,63.07
2023-01-13T19:03:16.067Z,62.87
2023-01-13T19:06:00.881Z,61.69
2023-01-13T19:08:45.801Z,61.91
2023-01-13T19:11:30.646Z,62.30
2023-01-13T19:14:15.670Z,61.21
2023-01-13T19:17:00.653Z,61.02
2023-01-13T19:19:45.970Z,62.21
2023-01-13T19:22:30.993Z,62.29
2023-01-13T19:25:16.045Z,62.56
2023-01-13T19:28:00.825Z,61.08
2023-01-13T19:30:45.732Z,61.30
2023-01-13T19:33:30.713Z,61.73
2023-01-13T19:36:15.561Z,62.78
2023-01-13T19:39:00.382Z,60.84
2023-01-13T19:41:45.223Z,59.07
2023-01-13T19:44:30.166Z,58.19
2023-01-13T19:47:15.181Z,59.25
2023-01-13T19:50:00.024Z,63.11
2023-01-13T19:52:44.833Z,62.79
2023-01-13T19:55:29.676Z,64.51
2023-01-13T19:58:14.772Z,65.45
2023-01-13T20:00:59.709Z,65.52
2023-01-13T20:03:44.631Z,64.07
2023-01-13T20:06:29.508Z,64.09
2023-01-13T20:09:14.489Z,63.95
2023-01-13T20:11:59.214Z,64.71
2023-01-13T20:14:44.058Z,64.40
2023-01-13T20:17:30.751Z,65.24
2023-01-13T20:20:15.849Z,66.12
2023-01-13T20:23:00.665Z,64.79
2023-01-13T20:25:45.516Z,64.73
2023-01-13T20:28:30.472Z,63.49
2023-01-13T20:31:15.298Z,63.51
2023-01-13T20:34:00.103Z,63.61
2023-01-13T20:36:45.049Z,64.25
2023-01-13T20:39:29.963Z,65.08
2023-01-13T20:42:14.954Z,65.63
2023-01-13T20:44:59.849Z,64.38
2023-01-13T20:47:44.753Z,64.90
2023-01-13T20:50:29.465Z,64.09
2023-01-13T20:53:14.270Z,66.16
2023-01-13T20:55:59.291Z,65.54
2023-01-13T20:58:44.275Z,66.46
2023-01-13T21:01:29.227Z,66.23
2023-01-13T21:04:14.066Z,65.53
2023-01-13T21:06:59.068Z,65.62
2023-01-13T21:09:43.925Z,65.70
2023-01-13T21:12:28.780Z,66.89
2023-01-13T21:15:13.756Z,68.29
2023-01-13T21:17:58.672Z,66.91
2023-01-13T21:20:43.484Z,66.91
2023-01-13T21:23:28.373Z,65.77
2023-01-13T21:26:13.217Z,66.02
2023-01-13T21:28:57.938Z,65.63
2023-01-13T21:31:42.854Z,66.50
2023-01-13T21:34:27.708Z,67.29
2023-01-13T21:37:12.622Z,64.88
2023-01-13T21:39:57.562Z,66.46
2023-01-13T21:42:42.473Z,68.13
2023-01-13T21:45:27.470Z,66.63
2023-01-13T21:48:12.118Z,68.07
2023-01-13T21:50:56.984Z,67.16
2023-01-13T21:53:41.963Z,67.19
2023-01-13T21:56:26.894Z,67.55
2023-01-13T21:59:11.681Z,67.88
2023-01-13T22:02:12.347Z,69.33
2023-01-13T22:05:01.447Z,67.99
2023-01-13T22:07:46.269Z,68.25
2023-01-13T22:10:31.078Z,67.92
2023-01-13T22:13:15.844Z,68.37
2023-01-13T22:16:00.783Z,67.90
2023-01-13T22:18:45.743Z,67.27
2023-01-13T22:21:30.801Z,67.92
2023-01-13T22:24:15.544Z,66.94
2023-01-13T22:27:00.407Z,66.37
2023-01-13T22:29:45.249Z,69.16
2023-01-13T22:32:30.078Z,69.60
2023-01-13T22:35:15.049Z,69.88
2023-01-13T22:37:59.981Z,70.87
2023-01-13T22:40:44.962Z,70.81
2023-01-13T22:43:29.823Z,70.53
2023-01-13T22:46:14.778Z,71.48
2023-01-13T22:48:59.569Z,69.98
2023-01-13T22:51:44.458Z,70.27
2023-01-13T22:54:29.220Z,70.09
2023-01-13T22:57:14.383Z,70.27
2023-01-13T22:59:59.600Z,70.26
2023-01-13T23:02:44.449Z,68.71
2023-01-13T23:05:29.444Z,69.53
2023-01-13T23:08:14.244Z,68.86
2023-01-13T23:10:59.180Z,68.76
2023-01-13T23:13:43.957Z,66.84
2023-01-13T23:16:28.916Z,65.82
2023-01-13T23:19:13.787Z,67.10
2023-01-13T23:21:58.690Z,67.64
2023-01-13T23:24:43.534Z,69.37
2023-01-13T23:27:28.447Z,69.21
2023-01-13T23:30:13.502Z,69.16
2023-01-13T23:32:58.216Z,69.73
2023-01-13T23:35:43.085Z,72.14
2023-01-13T23:38:27.961Z,73.11
2023-01-13T23:41:12.811Z,71.40
2023-01-13T23:43:57.587Z,72.86
2023-01-13T23:46:42.519Z,72.09
2023-01-13T23:49:27.531Z,73.04
2023-01-13T23:52:12.316Z,70.46
2023-01-13T23:54:57.210Z,71.69
2023-01-13T23:57:42.167Z,73.28
